Ashley, Wisconsin
Current Conditions -  °F | °C
As of 12:15 AM on Friday 31 Oct 2014 (Local Time) from KCWA Reporting Station
Overcast Overcast  
Wind Chill: 22°   Ceiling: 2600
Heat Index: 34°   Visibility: 10mi
Dew Point: 30°   Wind: 21mph
Humidity: 87%   Direction: 300°WNW
Pressure: 30.09"   Gusts: 26mph
Location:  44.7605°N, 89.5918°W
Report Text: KCWA 310515Z AUTO 30018G23KT 10SM BKN026 BKN046 OVC060 01/M01 A3009 RMK AO2
Loading
Personal Weather Stations






























Interactive Weather Map
Tropical Storm Tracking
New forecast layout! Learn more

10-Day Weather Forecast

Advertisements
Track Severe Weather on mobile